This is the latest recevied weather packets stored in our database for station/object OE-11051. If no packets are shown the sender has not sent any weather packets the latest 10 day(s).
| Time | Temp. | Humidity | Pressure | Rain* | Wind** | Luminosity | Snow |
|---|---|---|---|---|---|---|---|
| 1788019507 | 25.56° C | 42% | 1014.4 hPa | 0 mm | - | 316 W/m² | - |
| 1788018907 | 25° C | 42% | 1014.5 hPa | 0 mm | - | 251 W/m² | - |
| 1788018080 | 25.56° C | 40% | 1014.5 hPa | 0 mm | - | 303 W/m² | - |
| 1788017707 | 25.56° C | 40% | 1014.4 hPa | 0 mm | - | 413 W/m² | - |
| 1788017107 | 26.11° C | 42% | 1014.3 hPa | 0 mm | - | 426 W/m² | - |
| 1788016280 | 26.11° C | 42% | 1014.4 hPa | 0 mm | - | 400 W/m² | - |
| 1788015907 | 25.56° C | 40% | 1014.6 hPa | 0 mm | - | 477 W/m² | - |
| 1788015307 | 25° C | 41% | 1014.7 hPa | 0 mm | - | 503 W/m² | - |
| 1788014480 | 25° C | 41% | 1014.7 hPa | 0 mm | - | 535 W/m² | - |
| 1788014107 | 26.11° C | 41% | 1014.5 hPa | 0 mm | - | 567 W/m² | - |
| 1788013506 | 26.11° C | 41% | 1014.6 hPa | 0 mm | - | 574 W/m² | - |
| 1788012680 | 26.11° C | 41% | 1014.6 hPa | 0 mm | - | 606 W/m² | - |
| 1788012307 | 25.56° C | 43% | 1014.8 hPa | 0 mm | - | 619 W/m² | - |
| 1788011707 | 25.56° C | 42% | 1015.1 hPa | 0 mm | - | 632 W/m² | - |
| 1788010880 | 25.56° C | 45% | 1015.3 hPa | 0 mm | - | 645 W/m² | - |
| 1788010507 | 25.56° C | 44% | 1015.2 hPa | 0 mm | - | 658 W/m² | - |
| 1788009906 | 25° C | 44% | 1015.4 hPa | 0 mm | - | 683 W/m² | - |
| 1788009080 | 26.11° C | 44% | 1015.3 hPa | 0 mm | - | 722 W/m² | - |
| 1788008707 | 25.56° C | 45% | 1015.6 hPa | 0 mm | - | 703 W/m² | - |
| 1788008107 | 25° C | 46% | 1015.6 hPa | 0 mm | - | 716 W/m² | - |
| 1788007280 | 24.44° C | 47% | 1015.8 hPa | 0 mm | - | 735 W/m² | - |
| 1788006907 | 23.89° C | 48% | 1016 hPa | 0 mm | - | 638 W/m² | - |
| 1788006307 | 24.44° C | 49% | 1016 hPa | 0 mm | - | 767 W/m² | - |
| 1788005479 | 24.44° C | 50% | 1016 hPa | 0 mm | - | 761 W/m² | - |
| 1788005107 | 23.33° C | 50% | 1016.2 hPa | 0 mm | - | 767 W/m² | - |
* Rain latest hour (hover to see other rain measurements)
** Current wind speed in m/s (hover to see current wind gust speed)